Latest Coastal Weather Observations for Warrnambool

IDV60701

Issued at 8:41 am EST Sunday 31 July 2016 (issued every 10 minutes, with the page automatically refreshed every 10 minutes)

About coastal observations | Map of coastal stations | Coastal observations for VIC | Marine services | Other Formats
Station Details ID: 090186 Name: WARRNAMBOOL AIRPORT NDB Lat: -38.29 Lon: 142.45 Height: 70.8 m
Data from the previous 72 hours. | See also: Recent months at Warrnambool
Date/Time
EST
Temp
°C
Wind Pressure Rain since
9am
mm
Weather Cloud Vis
km
Sea
Height
m
Swell
Dir  Spd
kts
Gust
kts
hPa Trend Height
m
Period
s
Dir
31/08:30am 8.8 NW 8 10 1015.8 - 0.8 - - 10 - - - -
31/08:00am 8.6 NW 10 12 1015.5 - 0.8 - - 10 - - - -
31/07:30am 9.0 NNW 10 13 1015.1 - 0.8 - - 10 - - - -
31/07:00am 8.9 NW 11 14 1014.7 - 0.8 - - 10 - - - -
31/06:30am 8.4 NW 9 11 1014.4 - 0.8 - - 10 - - - -
31/06:00am 7.5 NNW 8 9 1014.1 - 0.8 - - 10 - - - -
31/05:30am 7.9 NW 7 9 1013.9 - 0.8 - - 10 - - - -
31/05:00am 8.4 NW 9 10 1013.8 - 0.8 - - 10 - - - -
31/04:30am 8.6 NW 8 10 1013.6 - 0.8 - - 10 - - - -
31/04:00am 8.9 NW 8 9 1013.3 - 0.8 - - 10 - - - -
31/03:30am 9.6 NW 8 11 1013.3 - 0.8 - - 10 - - - -
31/03:00am 9.6 NW 8 9 1013.4 - 0.8 - - 10 - - - -
31/02:30am 10.1 NW 8 10 1013.2 - 0.8 - - 10 - - - -
31/02:00am 10.5 NW 9 12 1013.1 - 0.8 - - 10 - - - -
31/01:30am 11.4 NW 11 16 1012.8 - 0.8 - - 10 - - - -
31/01:00am 11.8 NW 16 20 1012.6 - 0.8 - - 10 - - - -
31/12:30am 11.6 NW 15 20 1012.6 - 0.8 - - 10 - - - -
31/12:00am 11.4 NNW 15 19 1012.3 - 0.8 Showers - 10 - - - -
 
Date/Time
EST
Temp
°C
Wind Pressure Rain since
9am
mm
Weather Cloud Vis
km
Sea
Height
m
Swell
Dir  Spd
kts
Gust
kts
hPa Trend Height
m
Period
s
Dir
30/11:30pm 11.6 NNW 16 21 1011.7 - 0.4 - - 10 - - - -
30/11:00pm 11.6 NNW 18 24 1011.3 - 0.2 - - 10 - - - -
30/10:30pm 12.5 NNW 20 28 1011.2 - 0.2 - - 10 - - - -
30/10:00pm 12.5 NNW 20 30 1011.2 - 0.2 - - 10 - - - -
30/09:53pm 12.6 NNW 19 30 1011.2 - 0.2 - - 10 - - - -
30/09:30pm 12.6 NNW 19 27 1011.3 - 0.2 - - 10 - - - -
30/09:00pm 13.1 NNW 21 30 1011.4 - 0.2 - - 10 - - - -
30/08:37pm 13.3 NNW 21 31 1011.1 - 0.2 - - 10 - - - -
30/08:30pm 13.3 NNW 21 30 1011.1 - 0.2 - - 10 - - - -
30/08:19pm 13.3 NNW 20 30 1010.9 - 0.2 - - 10 - - - -
30/08:00pm 13.2 NNW 20 29 1010.7 - 0.2 - - 10 - - - -
30/07:30pm 13.0 NNW 22 31 1010.7 - 0.2 - - 10 - - - -
30/07:16pm 13.3 N 23 33 1010.4 - 0.2 - - 10 - - - -
30/07:00pm 13.4 NNW 21 27 1010.5 - 0.2 - - 10 - - - -
30/06:30pm 13.6 N 19 24 1010.6 - 0.2 - - 10 - - - -
30/06:00pm 12.7 N 15 20 1010.1 - 0.2 - - 10 - - - -
30/05:30pm 12.7 N 17 22 1010.0 - 0.2 - - 10 - - - -
30/05:00pm 12.6 N 17 21 1010.4 - 0.2 - - 10 - - - -
30/04:30pm 12.7 N 18 22 1010.7 - 0.2 - - 10 - - - -
30/04:10pm 12.8 N 16 26 1011.0 - 0.2 - - 10 - - - -
30/04:00pm 12.6 N 15 21 1011.0 - 0.2 - - 10 - - - -
30/03:30pm 12.7 N 19 27 1011.3 - 0.2 - - 10 - - - -
30/03:00pm 12.8 N 19 24 1011.9 - 0.2 - - 10 - - - -
30/02:30pm 12.9 N 19 26 1012.7 - 0.2 - - 10 - - - -
30/02:00pm 12.7 N 22 29 1013.3 - 0.2 - - 10 - - - -
30/01:50pm 12.7 N 20 31 1013.5 - 0.2 - - 10 - - - -
30/01:30pm 12.9 N 23 32 1014.1 - 0.2 - - 10 - - - -
30/01:00pm 13.1 N 23 35 1014.5 - 0.2 - - 10 - - - -
30/12:30pm 13.2 N 25 35 1015.4 - 0.2 - - 10 - - - -
30/12:21pm 13.0 N 23 35 1015.5 - 0.2 - - 10 - - - -
30/12:00pm 13.5 N 23 31 1015.4 - 0.2 - - 10 - - - -
30/11:30am 13.1 N 20 31 1016.9 - 0.2 - - 10 - - - -
30/11:29am 13.1 N 20 31 1017.0 - 0.2 - - 10 - - - -
30/11:27am 13.2 N 19 27 1017.2 - 0.2 - - 10 - - - -
30/11:00am 12.7 N 13 17 1017.8 - 0.2 - - 10 - - - -
30/10:30am 11.5 N 11 15 1017.9 - 0.2 - - 10 - - - -
30/10:00am 9.9 NNE 10 12 1018.0 - 0.2 - - 10 - - - -
30/09:30am 9.4 NNE 9 11 1018.5 - 0.0 - - 10 - - - -
30/09:00am 8.6 N 7 10 1018.8 - 0.6 - - 10 - - - -
30/08:30am 8.0 N 10 13 1018.9 - 0.6 - - 10 - - - -
30/08:00am 7.0 N 9 11 1019.1 - 0.6 - - 10 - - - -
30/07:30am 7.3 N 10 12 1019.5 - 0.6 - - 10 - - - -
30/07:00am 7.7 N 8 10 1019.3 - 0.6 - - 10 - - - -
30/06:30am 7.4 N 7 9 1019.6 - 0.6 - - 10 - - - -
30/06:00am 8.0 N 9 11 1019.6 - 0.6 - - 10 - - - -
30/05:30am 8.2 N 9 10 1019.6 - 0.6 - - 10 - - - -
30/05:00am 8.6 N 9 12 1019.6 - 0.6 - - 10 - - - -
30/04:30am 9.0 N 7 9 1019.9 - 0.6 - - 10 - - - -
30/04:00am 9.2 N 7 8 1020.2 - 0.6 - - 10 - - - -
30/03:30am 9.0 N 7 8 1020.4 - 0.6 - - 10 - - - -
30/03:00am 9.4 N 6 8 1020.7 - 0.6 - - 10 - - - -
30/02:30am 9.2 N 7 8 1020.9 - 0.6 - - 10 - - - -
30/02:23am 9.2 N 7 8 1021.0 - 0.6 - - 10 - - - -
30/02:00am 8.9 N 8 10 1021.1 - 0.6 - - 2 - - - -
30/01:57am 8.9 N 8 10 1021.1 - 0.6 - - 5 - - - -
30/01:30am 9.0 N 7 7 1021.1 - 0.6 - - 10 - - - -
30/01:00am 8.9 N 7 8 1021.3 - 0.6 - - 10 - - - -
30/12:30am 7.3 N 6 7 1021.4 - 0.6 - - 10 - - - -
30/12:00am 7.8 N 7 7 1021.7 - 0.6 - - 10 - - - -
 
Date/Time
EST
Temp
°C
Wind Pressure Rain since
9am
mm
Weather Cloud Vis
km
Sea
Height
m
Swell
Dir  Spd
kts
Gust
kts
hPa Trend Height
m
Period
s
Dir
29/11:30pm 8.3 N 8 9 1021.9 - 0.6 - - 10 - - - -
29/11:00pm 8.9 NNW 7 8 1021.8 - 0.6 - - 10 - - - -
29/10:30pm 8.9 NNW 7 8 1021.8 - 0.6 - - 10 - - - -
29/10:00pm 8.7 NNW 6 7 1021.9 - 0.6 - - 10 - - - -
29/09:30pm 10.1 NNW 7 9 1021.7 - 0.6 - - 10 - - - -
29/09:00pm 9.8 NNW 7 8 1021.6 - 0.6 - - 10 - - - -
29/08:30pm 10.2 NW 6 7 1021.6 - 0.6 - - 10 - - - -
29/08:00pm 10.2 NW 6 7 1021.4 - 0.6 - - 10 - - - -
29/07:30pm 11.0 WNW 5 7 1021.3 - 0.6 - - 10 - - - -
29/07:00pm 11.7 WNW 7 8 1021.3 - 0.6 - - 10 - - - -
29/06:30pm 11.7 WNW 6 7 1020.9 - 0.6 - - 10 - - - -
29/06:00pm 12.1 WNW 7 8 1020.5 - 0.6 - - 10 - - - -
29/05:30pm 12.5 W 9 12 1020.2 - 0.6 - - 10 - - - -
29/05:00pm 13.0 W 10 14 1020.1 - 0.6 - - 10 - - - -
29/04:30pm 13.3 W 11 15 1020.0 - 0.6 - - 10 - - - -
29/04:00pm 13.5 W 12 17 1019.9 - 0.6 - - 10 - - - -
29/03:30pm 13.6 W 14 18 1019.8 - 0.6 - - 10 - - - -
29/03:00pm 13.8 W 15 19 1019.9 - 0.6 Rain - 10 - - - -
29/02:30pm 13.1 WSW 12 17 1019.8 - 0.6 - - 10 - - - -
29/02:00pm 15.0 W 16 21 1019.6 - 0.6 - - 10 - - - -
29/01:30pm 14.0 W 17 23 1019.7 - 0.6 - - 10 - - - -
29/01:00pm 13.8 W 15 21 1019.9 - 0.6 - - 10 - - - -
29/12:33pm 12.8 W 16 26 1020.1 - 0.6 - - 10 - - - -
29/12:30pm 12.5 W 18 26 1020.1 - 0.6 - - 10 - - - -
29/12:00pm 12.0 WSW 14 18 1020.5 - 0.6 Showers - 10 - - - -
29/11:56am 12.0 WSW 15 21 1020.6 - 0.6 - - 10 - - - -
29/11:41am 12.1 W 19 32 1020.8 - 0.4 - - 5 - - - -
29/11:34am 13.4 W 18 32 1020.8 - 0.0 - - 10 - - - -
29/11:30am 14.0 WNW 18 23 1020.6 - 0.0 - - 10 - - - -
29/11:00am 13.6 WNW 14 19 1020.7 - 0.0 - - 10 - - - -
29/10:30am 13.3 WNW 12 18 1020.7 - 0.0 - - 10 - - - -
29/10:00am 12.2 WNW 9 13 1020.8 - 0.0 - - 10 - - - -
29/09:30am 11.9 NW 8 12 1020.6 - 0.0 - - 10 - - - -
29/09:00am 11.5 NW 11 15 1020.6 - 0.6 - - 10 - - - -
29/08:30am 11.3 WNW 11 17 1020.4 - 0.6 - - 10 - - - -
29/08:00am 11.3 WNW 11 19 1020.3 - 0.6 - - 10 - - - -
29/07:51am 11.2 WNW 12 19 1020.3 - 0.6 - - 10 - - - -
29/07:37am 11.2 NW 15 19 1020.1 - 0.6 - - 5 - - - -
29/07:30am 11.2 NW 15 18 1020.1 - 0.4 - - 10 - - - -
29/07:00am 11.0 NW 13 17 1019.8 - 0.4 - - 10 - - - -
29/06:46am 11.0 NW 13 18 1019.7 - 0.4 - - 10 - - - -
29/06:30am 11.1 NW 15 19 1019.6 - 0.4 - - 4 - - - -
29/06:12am 11.1 NW 16 23 1019.5 - 0.4 - - 5 - - - -
29/06:09am 11.1 NW 16 23 1019.4 - 0.4 - - 10 - - - -
29/06:00am 11.0 NW 15 19 1019.4 - 0.2 Showers - 7 - - - -
29/05:30am 11.1 NW 13 19 1019.3 - 0.2 - - 4 - - - -
29/05:12am 11.2 NW 15 20 1019.2 - 0.0 - - 5 - - - -
29/05:00am 11.2 NW 15 19 1019.2 - 0.0 - - 7 - - - -
29/04:30am 11.1 NW 14 18 1019.3 - 0.0 - - 10 - - - -
29/04:00am 11.0 NW 14 17 1019.4 - 0.0 - - 10 - - - -
29/03:30am 11.1 NW 14 19 1019.5 - 0.0 - - 9 - - - -
29/03:00am 11.2 NW 15 20 1019.7 - 0.0 - - 10 - - - -
29/02:30am 11.2 NW 15 20 1020.0 - 0.0 - - 10 - - - -
29/02:00am 11.1 NNW 14 18 1020.1 - 0.0 - - 10 - - - -
29/01:30am 11.0 NNW 15 18 1020.2 - 0.0 - - 10 - - - -
29/01:00am 10.9 NW 16 22 1020.5 - 0.0 - - 10 - - - -
29/12:30am 10.9 NW 15 18 1020.5 - 0.0 - - 10 - - - -
29/12:00am 11.1 NW 16 22 1020.7 - 0.0 - - 10 - - - -
 
Date/Time
EST
Temp
°C
Wind Pressure Rain since
9am
mm
Weather Cloud Vis
km
Sea
Height
m
Swell
Dir  Spd
kts
Gust
kts
hPa Trend Height
m
Period
s
Dir
28/11:30pm 11.2 NW 16 22 1020.9 - 0.0 - - 10 - - - -
28/11:00pm 11.2 NW 15 21 1021.2 - 0.0 - - 10 - - - -
28/10:30pm 11.3 NW 16 24 1021.4 - 0.0 - - 10 - - - -
28/10:00pm 11.1 NW 15 20 1021.5 - 0.0 - - 10 - - - -
28/09:30pm 11.3 NW 15 22 1021.6 - 0.0 - - 10 - - - -
28/09:00pm 11.7 NW 16 21 1021.9 - 0.0 - - 10 - - - -
28/08:30pm 11.9 NW 14 19 1021.9 - 0.0 - - 10 - - - -
28/08:00pm 12.0 NW 14 18 1022.2 - 0.0 - - 10 - - - -
28/07:30pm 12.0 NW 12 15 1022.2 - 0.0 - - 10 - - - -
28/07:00pm 11.9 NW 11 15 1022.2 - 0.0 - - 10 - - - -
28/06:30pm 12.4 NW 12 17 1022.1 - 0.0 - - 10 - - - -
28/06:00pm 12.5 NW 9 14 1022.0 - 0.0 - - 10 - - - -
28/05:30pm 12.8 WNW 9 13 1022.0 - 0.0 - - 10 - - - -
28/05:00pm 13.0 WNW 10 14 1021.9 - 0.0 - - 10 - - - -
28/04:30pm 13.1 WNW 10 14 1021.9 - 0.0 - - 10 - - - -
28/04:00pm 13.5 WNW 12 19 1021.7 - 0.0 - - 10 - - - -
28/03:30pm 14.6 WNW 13 19 1021.6 - 0.0 - - 10 - - - -
28/03:00pm 14.8 WNW 15 21 1021.4 - 0.0 - - 10 - - - -
28/02:30pm 14.6 WNW 14 21 1021.6 - 0.0 - - 10 - - - -
28/02:00pm 14.3 WNW 15 25 1021.6 - 0.0 - - 10 - - - -
28/01:44pm 14.2 WNW 15 25 1021.9 - 0.0 - - 10 - - - -
28/01:30pm 14.4 WNW 15 24 1022.0 - 0.0 - - 10 - - - -
28/01:00pm 12.9 WNW 14 18 1022.5 - 0.0 - - 10 - - - -
28/12:30pm 13.3 WNW 13 21 1022.7 - 0.0 - - 10 - - - -
28/12:00pm 13.1 WNW 13 19 1023.1 - 0.0 - - 10 - - - -
28/11:30am 12.1 NW 13 19 1023.4 - 0.0 - - 10 - - - -
28/11:00am 11.2 NW 16 22 1023.5 - 0.0 - - 10 - - - -
28/10:30am 10.7 NW 15 20 1023.5 - 0.0 - - 10 - - - -
28/10:00am 10.2 NW 15 21 1023.4 - 0.0 - - 10 - - - -
28/09:30am 10.4 NW 15 19 1023.4 - 0.0 - - 10 - - - -
28/09:00am 9.8 NW 15 19 1023.0 - 1.0 - - 10 - - - -

Other Formats:

Comma delimited format used in spreadsheet applications
http://www.bom.gov.au/fwo/IDV60701/IDV60701.94837.axf

JavaScript Object Notation format (JSON) in row-major order
http://www.bom.gov.au/fwo/IDV60701/IDV60701.94837.json